sensor_id;sensor_type;location;lat;lon;timestamp;temperature;humidity
33428;DHT22;19769;48.150;16.306;2022-12-07T03:35:52;11.10;99.90
33428;DHT22;19769;48.150;16.306;2022-12-07T03:38:23;6.80;99.90
33428;DHT22;19769;48.150;16.306;2022-12-07T03:40:52;6.70;99.90
33428;DHT22;19769;48.150;16.306;2022-12-07T03:43:20;6.70;99.90
33428;DHT22;19769;48.150;16.306;2022-12-07T03:45:59;6.70;99.90
33428;DHT22;19769;48.150;16.306;2022-12-07T03:48:35;6.70;99.90
33428;DHT22;19769;48.150;16.306;2022-12-07T03:51:13;6.70;99.90
33428;DHT22;19769;48.150;16.306;2022-12-07T03:53:45;6.60;99.90
33428;DHT22;19769;48.150;16.306;2022-12-07T03:56:11;6.60;99.90
33428;DHT22;19769;48.150;16.306;2022-12-07T03:58:38;6.60;99.90
33428;DHT22;19769;48.150;16.306;2022-12-07T04:01:04;6.50;99.90
33428;DHT22;19769;48.150;16.306;2022-12-07T04:03:30;6.60;99.90
33428;DHT22;19769;48.150;16.306;2022-12-07T04:05:56;6.60;99.90
33428;DHT22;19769;48.150;16.306;2022-12-07T04:08:23;6.60;99.90
33428;DHT22;19769;48.150;16.306;2022-12-07T04:10:49;6.60;99.90
33428;DHT22;19769;48.150;16.306;2022-12-07T04:13:14;6.60;99.90
33428;DHT22;19769;48.150;16.306;2022-12-07T04:15:40;6.60;99.90
33428;DHT22;19769;48.150;16.306;2022-12-07T04:18:08;6.60;99.90
33428;DHT22;19769;48.150;16.306;2022-12-07T04:20:33;6.60;99.90
33428;DHT22;19769;48.150;16.306;2022-12-07T04:22:59;6.60;99.90
33428;DHT22;19769;48.150;16.306;2022-12-07T10:37:41;10.60;71.60
33428;DHT22;19769;48.150;16.306;2022-12-07T10:40:24;10.50;74.30
33428;DHT22;19769;48.150;16.306;2022-12-07T10:45:30;11.00;74.00
33428;DHT22;19769;48.150;16.306;2022-12-07T10:48:18;11.00;72.60
33428;DHT22;19769;48.150;16.306;2022-12-07T10:53:38;10.30;73.60
33428;DHT22;19769;48.150;16.306;2022-12-07T10:58:41;9.40;76.70
33428;DHT22;19769;48.150;16.306;2022-12-07T11:06:10;9.00;78.00
33428;DHT22;19769;48.150;16.306;2022-12-07T11:08:45;8.40;84.10
33428;DHT22;19769;48.150;16.306;2022-12-07T11:11:21;8.40;85.10
33428;DHT22;19769;48.150;16.306;2022-12-07T11:24:17;8.30;88.40
33428;DHT22;19769;48.150;16.306;2022-12-07T11:26:58;8.20;88.00
33428;DHT22;19769;48.150;16.306;2022-12-07T11:34:39;7.80;89.60
33428;DHT22;19769;48.150;16.306;2022-12-07T11:37:14;7.90;90.60
33428;DHT22;19769;48.150;16.306;2022-12-07T11:39:52;7.90;89.40
33428;DHT22;19769;48.150;16.306;2022-12-07T11:42:23;7.90;89.90
33428;DHT22;19769;48.150;16.306;2022-12-07T11:45:09;7.80;89.80
33428;DHT22;19769;48.150;16.306;2022-12-07T11:50:21;7.90;91.00
33428;DHT22;19769;48.150;16.306;2022-12-07T11:53:03;7.90;90.80
33428;DHT22;19769;48.150;16.306;2022-12-07T11:58:54;7.70;91.80
33428;DHT22;19769;48.150;16.306;2022-12-07T12:00:55;7.80;92.40
33428;DHT22;19769;48.150;16.306;2022-12-07T12:20:43;8.20;92.20
33428;DHT22;19769;48.150;16.306;2022-12-07T12:25:39;11.10;72.50
33428;DHT22;19769;48.150;16.306;2022-12-07T12:28:05;10.90;73.30
33428;DHT22;19769;48.150;16.306;2022-12-07T12:30:41;11.10;72.60
33428;DHT22;19769;48.150;16.306;2022-12-07T12:33:28;11.40;71.40
33428;DHT22;19769;48.150;16.306;2022-12-07T12:38:50;11.60;69.60
33428;DHT22;19769;48.150;16.306;2022-12-07T12:44:02;12.10;67.00
33428;DHT22;19769;48.150;16.306;2022-12-07T12:51:42;11.90;65.10
33428;DHT22;19769;48.150;16.306;2022-12-07T12:54:14;11.60;65.50
33428;DHT22;19769;48.150;16.306;2022-12-07T12:56:54;11.90;64.30
33428;DHT22;19769;48.150;16.306;2022-12-07T12:59:25;12.10;63.90
33428;DHT22;19769;48.150;16.306;2022-12-07T13:01:55;12.00;63.30
33428;DHT22;19769;48.150;16.306;2022-12-07T13:04:23;12.10;63.10
33428;DHT22;19769;48.150;16.306;2022-12-07T13:06:50;11.90;64.00
33428;DHT22;19769;48.150;16.306;2022-12-07T13:09:18;11.70;64.20
33428;DHT22;19769;48.150;16.306;2022-12-07T13:11:44;11.90;64.50
33428;DHT22;19769;48.150;16.306;2022-12-07T13:16:55;12.20;65.00
33428;DHT22;19769;48.150;16.306;2022-12-07T13:24:54;14.80;56.00
33428;DHT22;19769;48.150;16.306;2022-12-07T13:27:20;14.00;56.60
33428;DHT22;19769;48.150;16.306;2022-12-07T13:29:47;12.60;59.40
33428;DHT22;19769;48.150;16.306;2022-12-07T13:32:26;11.00;63.10
33428;DHT22;19769;48.150;16.306;2022-12-07T13:34:52;10.30;66.40
33428;DHT22;19769;48.150;16.306;2022-12-07T13:37:27;9.80;69.30
33428;DHT22;19769;48.150;16.306;2022-12-07T13:39:55;9.30;71.60
33428;DHT22;19769;48.150;16.306;2022-12-07T13:42:28;9.00;73.80
33428;DHT22;19769;48.150;16.306;2022-12-07T13:44:54;8.60;75.30
33428;DHT22;19769;48.150;16.306;2022-12-07T13:47:44;8.50;77.60
33428;DHT22;19769;48.150;16.306;2022-12-07T13:50:31;8.30;79.10
33428;DHT22;19769;48.150;16.306;2022-12-07T13:52:57;8.20;80.20
33428;DHT22;19769;48.150;16.306;2022-12-07T13:55:23;8.00;81.10
33428;DHT22;19769;48.150;16.306;2022-12-07T13:57:50;8.00;81.80
33428;DHT22;19769;48.150;16.306;2022-12-07T14:00:20;7.80;83.10
33428;DHT22;19769;48.150;16.306;2022-12-07T14:05:28;7.70;85.40
33428;DHT22;19769;48.150;16.306;2022-12-07T14:12:49;7.60;87.60
33428;DHT22;19769;48.150;16.306;2022-12-07T14:15:19;7.50;89.10
33428;DHT22;19769;48.150;16.306;2022-12-07T14:17:50;7.30;90.50
33428;DHT22;19769;48.150;16.306;2022-12-07T14:20:36;7.30;91.20
33428;DHT22;19769;48.150;16.306;2022-12-07T14:23:03;7.30;91.70
33428;DHT22;19769;48.150;16.306;2022-12-07T14:25:47;7.30;92.10
33428;DHT22;19769;48.150;16.306;2022-12-07T14:28:32;7.30;92.50
33428;DHT22;19769;48.150;16.306;2022-12-07T14:31:21;7.30;93.00
33428;DHT22;19769;48.150;16.306;2022-12-07T14:40:33;7.20;94.40
33428;DHT22;19769;48.150;16.306;2022-12-07T14:45:24;7.20;95.10
33428;DHT22;19769;48.150;16.306;2022-12-07T14:47:50;7.20;95.80
33428;DHT22;19769;48.150;16.306;2022-12-07T14:50:18;7.20;96.10
33428;DHT22;19769;48.150;16.306;2022-12-07T14:52:45;7.20;96.20
33428;DHT22;19769;48.150;16.306;2022-12-07T14:55:28;7.20;96.50
33428;DHT22;19769;48.150;16.306;2022-12-07T14:57:54;7.20;97.00
33428;DHT22;19769;48.150;16.306;2022-12-07T15:00:23;7.20;96.80
33428;DHT22;19769;48.150;16.306;2022-12-07T15:02:49;7.20;97.00
33428;DHT22;19769;48.150;16.306;2022-12-07T15:05:16;7.20;96.90
33428;DHT22;19769;48.150;16.306;2022-12-07T15:07:42;7.10;97.30
33428;DHT22;19769;48.150;16.306;2022-12-07T15:10:13;7.10;97.60
33428;DHT22;19769;48.150;16.306;2022-12-07T15:12:40;7.20;98.10
33428;DHT22;19769;48.150;16.306;2022-12-07T15:15:05;7.20;98.00
33428;DHT22;19769;48.150;16.306;2022-12-07T15:17:31;7.20;98.10
33428;DHT22;19769;48.150;16.306;2022-12-07T15:19:57;7.10;98.50
33428;DHT22;19769;48.150;16.306;2022-12-07T15:22:23;7.10;99.00
33428;DHT22;19769;48.150;16.306;2022-12-07T15:24:48;7.00;99.10
33428;DHT22;19769;48.150;16.306;2022-12-07T15:27:14;7.10;99.50
33428;DHT22;19769;48.150;16.306;2022-12-07T15:29:39;7.00;99.90
33428;DHT22;19769;48.150;16.306;2022-12-07T15:32:05;7.00;99.90
33428;DHT22;19769;48.150;16.306;2022-12-07T15:34:31;7.00;99.90
33428;DHT22;19769;48.150;16.306;2022-12-07T15:36:57;6.90;99.90
33428;DHT22;19769;48.150;16.306;2022-12-07T15:39:22;6.90;99.90
33428;DHT22;19769;48.150;16.306;2022-12-07T15:41:48;6.80;99.90
33428;DHT22;19769;48.150;16.306;2022-12-07T15:44:14;6.80;99.90
33428;DHT22;19769;48.150;16.306;2022-12-07T15:46:58;6.70;99.90
33428;DHT22;19769;48.150;16.306;2022-12-07T15:49:24;6.60;99.90
33428;DHT22;19769;48.150;16.306;2022-12-07T15:51:50;6.60;99.90
33428;DHT22;19769;48.150;16.306;2022-12-07T15:54:18;6.40;99.90
33428;DHT22;19769;48.150;16.306;2022-12-07T15:56:44;6.50;99.90
33428;DHT22;19769;48.150;16.306;2022-12-07T15:59:19;6.40;99.90
33428;DHT22;19769;48.150;16.306;2022-12-07T16:01:45;6.40;99.90
33428;DHT22;19769;48.150;16.306;2022-12-07T16:04:20;6.40;99.90
33428;DHT22;19769;48.150;16.306;2022-12-07T16:06:45;6.30;99.90
33428;DHT22;19769;48.150;16.306;2022-12-07T16:09:11;6.30;99.90
33428;DHT22;19769;48.150;16.306;2022-12-07T16:11:37;6.30;99.90
33428;DHT22;19769;48.150;16.306;2022-12-07T16:14:03;6.30;99.90
33428;DHT22;19769;48.150;16.306;2022-12-07T16:16:29;6.30;99.90
33428;DHT22;19769;48.150;16.306;2022-12-07T16:19:00;6.30;99.90
33428;DHT22;19769;48.150;16.306;2022-12-07T16:21:28;6.30;99.90
33428;DHT22;19769;48.150;16.306;2022-12-07T16:23:57;6.30;99.90
33428;DHT22;19769;48.150;16.306;2022-12-07T16:26:24;6.30;99.90
33428;DHT22;19769;48.150;16.306;2022-12-07T16:28:50;6.20;99.90
33428;DHT22;19769;48.150;16.306;2022-12-07T16:31:20;6.20;99.90
33428;DHT22;19769;48.150;16.306;2022-12-07T16:33:46;6.20;99.90
33428;DHT22;19769;48.150;16.306;2022-12-07T16:36:12;6.10;99.90
33428;DHT22;19769;48.150;16.306;2022-12-07T16:38:42;6.10;99.90
33428;DHT22;19769;48.150;16.306;2022-12-07T16:41:11;6.10;99.90
33428;DHT22;19769;48.150;16.306;2022-12-07T16:43:37;6.10;99.90
33428;DHT22;19769;48.150;16.306;2022-12-07T16:46:05;6.10;99.90
33428;DHT22;19769;48.150;16.306;2022-12-07T16:48:41;6.10;99.90
33428;DHT22;19769;48.150;16.306;2022-12-07T16:51:08;6.10;99.90
33428;DHT22;19769;48.150;16.306;2022-12-07T16:53:48;6.20;99.90
33428;DHT22;19769;48.150;16.306;2022-12-07T16:56:14;6.10;99.90
33428;DHT22;19769;48.150;16.306;2022-12-07T16:58:46;6.10;99.90
33428;DHT22;19769;48.150;16.306;2022-12-07T17:01:19;6.10;99.90
33428;DHT22;19769;48.150;16.306;2022-12-07T17:03:48;6.10;99.90
33428;DHT22;19769;48.150;16.306;2022-12-07T17:06:40;6.10;99.90
33428;DHT22;19769;48.150;16.306;2022-12-07T17:09:06;6.10;99.90
33428;DHT22;19769;48.150;16.306;2022-12-07T17:11:35;6.10;99.90
33428;DHT22;19769;48.150;16.306;2022-12-07T17:14:01;6.10;99.90
33428;DHT22;19769;48.150;16.306;2022-12-07T17:16:45;6.00;99.90
33428;DHT22;19769;48.150;16.306;2022-12-07T17:19:13;6.00;99.90
33428;DHT22;19769;48.150;16.306;2022-12-07T17:21:39;6.00;99.90
33428;DHT22;19769;48.150;16.306;2022-12-07T17:24:07;6.00;99.90
33428;DHT22;19769;48.150;16.306;2022-12-07T17:26:33;5.80;99.90
33428;DHT22;19769;48.150;16.306;2022-12-07T17:28:59;5.90;99.90
33428;DHT22;19769;48.150;16.306;2022-12-07T17:31:25;5.90;99.90
33428;DHT22;19769;48.150;16.306;2022-12-07T17:33:51;5.80;99.90
33428;DHT22;19769;48.150;16.306;2022-12-07T17:36:18;5.90;99.90
33428;DHT22;19769;48.150;16.306;2022-12-07T17:38:45;5.90;99.90
33428;DHT22;19769;48.150;16.306;2022-12-07T17:41:18;5.90;99.90
33428;DHT22;19769;48.150;16.306;2022-12-07T17:44:05;6.00;99.90
33428;DHT22;19769;48.150;16.306;2022-12-07T17:46:32;6.00;99.90
33428;DHT22;19769;48.150;16.306;2022-12-07T17:48:58;6.00;99.90
33428;DHT22;19769;48.150;16.306;2022-12-07T17:51:24;6.00;99.90
33428;DHT22;19769;48.150;16.306;2022-12-07T17:54:09;6.00;99.90
33428;DHT22;19769;48.150;16.306;2022-12-07T17:56:35;6.00;99.90
33428;DHT22;19769;48.150;16.306;2022-12-07T17:59:02;6.00;99.90
33428;DHT22;19769;48.150;16.306;2022-12-07T18:01:28;6.00;99.90
33428;DHT22;19769;48.150;16.306;2022-12-07T18:03:54;6.00;99.90
33428;DHT22;19769;48.150;16.306;2022-12-07T18:06:20;5.90;99.90
33428;DHT22;19769;48.150;16.306;2022-12-07T18:08:46;5.90;99.90
33428;DHT22;19769;48.150;16.306;2022-12-07T18:11:12;6.00;99.90
33428;DHT22;19769;48.150;16.306;2022-12-07T18:13:37;6.00;99.90
33428;DHT22;19769;48.150;16.306;2022-12-07T18:18:32;5.90;99.90
33428;DHT22;19769;48.150;16.306;2022-12-07T18:21:01;5.90;99.90
33428;DHT22;19769;48.150;16.306;2022-12-07T18:23:28;5.90;99.90
33428;DHT22;19769;48.150;16.306;2022-12-07T18:25:54;5.90;99.90
33428;DHT22;19769;48.150;16.306;2022-12-07T18:28:20;6.00;99.90
33428;DHT22;19769;48.150;16.306;2022-12-07T18:30:45;6.00;99.90
33428;DHT22;19769;48.150;16.306;2022-12-07T18:33:17;6.00;99.90
33428;DHT22;19769;48.150;16.306;2022-12-07T18:35:44;6.10;99.90
33428;DHT22;19769;48.150;16.306;2022-12-07T18:38:11;6.10;99.90
33428;DHT22;19769;48.150;16.306;2022-12-07T18:40:37;6.20;99.90
33428;DHT22;19769;48.150;16.306;2022-12-07T18:43:05;6.20;99.90
33428;DHT22;19769;48.150;16.306;2022-12-07T18:45:34;6.20;99.90
33428;DHT22;19769;48.150;16.306;2022-12-07T18:48:00;6.20;99.90
33428;DHT22;19769;48.150;16.306;2022-12-07T18:50:26;6.10;99.90
33428;DHT22;19769;48.150;16.306;2022-12-07T18:52:52;6.00;99.90
33428;DHT22;19769;48.150;16.306;2022-12-07T18:55:29;5.90;99.90
33428;DHT22;19769;48.150;16.306;2022-12-07T18:57:55;6.00;99.90
33428;DHT22;19769;48.150;16.306;2022-12-07T19:00:24;5.90;99.90
33428;DHT22;19769;48.150;16.306;2022-12-07T19:02:54;5.80;99.90
33428;DHT22;19769;48.150;16.306;2022-12-07T19:05:21;5.90;99.90
33428;DHT22;19769;48.150;16.306;2022-12-07T19:07:47;5.90;99.90
33428;DHT22;19769;48.150;16.306;2022-12-07T19:10:16;5.80;99.90
33428;DHT22;19769;48.150;16.306;2022-12-07T19:12:42;5.80;99.90
33428;DHT22;19769;48.150;16.306;2022-12-07T19:15:09;5.80;99.90
33428;DHT22;19769;48.150;16.306;2022-12-07T19:17:36;5.90;99.90
33428;DHT22;19769;48.150;16.306;2022-12-07T19:20:03;5.90;99.90
33428;DHT22;19769;48.150;16.306;2022-12-07T19:22:29;5.90;99.90
33428;DHT22;19769;48.150;16.306;2022-12-07T19:24:55;5.90;99.90
33428;DHT22;19769;48.150;16.306;2022-12-07T19:27:21;5.90;99.90
33428;DHT22;19769;48.150;16.306;2022-12-07T19:29:47;5.90;99.90
33428;DHT22;19769;48.150;16.306;2022-12-07T19:32:14;5.90;99.90
33428;DHT22;19769;48.150;16.306;2022-12-07T19:34:41;5.90;99.90
33428;DHT22;19769;48.150;16.306;2022-12-07T19:37:09;5.90;99.90
33428;DHT22;19769;48.150;16.306;2022-12-07T19:39:39;6.00;99.90
33428;DHT22;19769;48.150;16.306;2022-12-07T19:42:06;6.00;99.90
33428;DHT22;19769;48.150;16.306;2022-12-07T19:44:32;6.00;99.90
33428;DHT22;19769;48.150;16.306;2022-12-07T19:46:59;6.00;99.90
33428;DHT22;19769;48.150;16.306;2022-12-07T19:49:26;6.00;99.90
33428;DHT22;19769;48.150;16.306;2022-12-07T19:51:54;6.00;99.90
33428;DHT22;19769;48.150;16.306;2022-12-07T19:54:21;6.00;99.90
33428;DHT22;19769;48.150;16.306;2022-12-07T19:56:48;5.90;99.90
33428;DHT22;19769;48.150;16.306;2022-12-07T19:59:15;5.90;99.90
33428;DHT22;19769;48.150;16.306;2022-12-07T20:01:47;6.00;99.90
33428;DHT22;19769;48.150;16.306;2022-12-07T20:04:47;6.00;99.90
33428;DHT22;19769;48.150;16.306;2022-12-07T20:07:25;5.90;99.90
33428;DHT22;19769;48.150;16.306;2022-12-07T20:09:51;5.90;99.90
33428;DHT22;19769;48.150;16.306;2022-12-07T20:12:24;5.90;99.90
33428;DHT22;19769;48.150;16.306;2022-12-07T20:15:18;5.90;99.90
33428;DHT22;19769;48.150;16.306;2022-12-07T20:17:50;5.90;99.90
33428;DHT22;19769;48.150;16.306;2022-12-07T20:20:33;5.80;99.90
33428;DHT22;19769;48.150;16.306;2022-12-07T20:23:02;5.80;99.90
33428;DHT22;19769;48.150;16.306;2022-12-07T20:25:34;5.70;99.90
33428;DHT22;19769;48.150;16.306;2022-12-07T20:28:03;5.60;99.90
33428;DHT22;19769;48.150;16.306;2022-12-07T20:30:45;5.60;99.90
33428;DHT22;19769;48.150;16.306;2022-12-07T20:33:16;5.60;99.90
33428;DHT22;19769;48.150;16.306;2022-12-07T20:35:42;5.60;99.90
33428;DHT22;19769;48.150;16.306;2022-12-07T20:38:10;5.50;99.90
33428;DHT22;19769;48.150;16.306;2022-12-07T20:40:37;5.60;99.90
33428;DHT22;19769;48.150;16.306;2022-12-07T20:43:11;5.60;99.90
33428;DHT22;19769;48.150;16.306;2022-12-07T20:45:47;5.60;99.90
33428;DHT22;19769;48.150;16.306;2022-12-07T20:48:13;5.60;99.90
33428;DHT22;19769;48.150;16.306;2022-12-07T20:50:39;5.50;99.90
33428;DHT22;19769;48.150;16.306;2022-12-07T20:53:05;5.50;99.90
33428;DHT22;19769;48.150;16.306;2022-12-07T20:55:31;5.50;99.90
33428;DHT22;19769;48.150;16.306;2022-12-07T22:06:11;5.40;99.90
33428;DHT22;19769;48.150;16.306;2022-12-07T22:08:36;5.40;99.90
33428;DHT22;19769;48.150;16.306;2022-12-07T22:11:02;5.30;99.90
33428;DHT22;19769;48.150;16.306;2022-12-07T22:13:28;5.50;99.90
33428;DHT22;19769;48.150;16.306;2022-12-07T22:16:16;5.40;99.90
33428;DHT22;19769;48.150;16.306;2022-12-07T22:18:42;5.60;99.90
33428;DHT22;19769;48.150;16.306;2022-12-07T22:21:08;5.50;99.90
33428;DHT22;19769;48.150;16.306;2022-12-07T22:23:33;5.50;99.90
33428;DHT22;19769;48.150;16.306;2022-12-07T22:26:03;5.50;99.90
33428;DHT22;19769;48.150;16.306;2022-12-07T22:28:28;5.50;99.90
33428;DHT22;19769;48.150;16.306;2022-12-07T22:30:54;5.40;99.90
33428;DHT22;19769;48.150;16.306;2022-12-07T22:33:26;5.50;99.90
33428;DHT22;19769;48.150;16.306;2022-12-07T22:35:51;5.50;99.90
33428;DHT22;19769;48.150;16.306;2022-12-07T22:38:17;5.60;99.90
33428;DHT22;19769;48.150;16.306;2022-12-07T22:40:43;5.60;99.90
33428;DHT22;19769;48.150;16.306;2022-12-07T22:43:08;5.70;99.90
33428;DHT22;19769;48.150;16.306;2022-12-07T22:45:34;5.60;99.90
33428;DHT22;19769;48.150;16.306;2022-12-07T22:48:00;5.70;99.90
33428;DHT22;19769;48.150;16.306;2022-12-07T22:50:25;5.70;99.90
33428;DHT22;19769;48.150;16.306;2022-12-07T22:52:52;5.70;99.90
33428;DHT22;19769;48.150;16.306;2022-12-07T22:55:19;5.80;99.90
33428;DHT22;19769;48.150;16.306;2022-12-07T22:57:44;5.80;99.90
33428;DHT22;19769;48.150;16.306;2022-12-07T23:00:10;5.80;99.90
33428;DHT22;19769;48.150;16.306;2022-12-07T23:02:36;5.90;99.90
33428;DHT22;19769;48.150;16.306;2022-12-07T23:05:02;5.90;99.90
33428;DHT22;19769;48.150;16.306;2022-12-07T23:07:28;5.90;99.90
33428;DHT22;19769;48.150;16.306;2022-12-07T23:09:54;5.80;99.90
33428;DHT22;19769;48.150;16.306;2022-12-07T23:12:19;5.80;99.90
33428;DHT22;19769;48.150;16.306;2022-12-07T23:15:04;5.80;99.90
33428;DHT22;19769;48.150;16.306;2022-12-07T23:17:30;5.80;99.90
33428;DHT22;19769;48.150;16.306;2022-12-07T23:19:55;5.70;99.90
33428;DHT22;19769;48.150;16.306;2022-12-07T23:22:21;5.70;99.90
33428;DHT22;19769;48.150;16.306;2022-12-07T23:24:47;5.70;99.90
33428;DHT22;19769;48.150;16.306;2022-12-07T23:27:13;5.70;99.90
33428;DHT22;19769;48.150;16.306;2022-12-07T23:29:51;5.70;99.90
33428;DHT22;19769;48.150;16.306;2022-12-07T23:32:16;5.70;99.90
33428;DHT22;19769;48.150;16.306;2022-12-07T23:34:42;5.70;99.90
33428;DHT22;19769;48.150;16.306;2022-12-07T23:37:14;5.70;99.90
33428;DHT22;19769;48.150;16.306;2022-12-07T23:40:08;5.70;99.90
33428;DHT22;19769;48.150;16.306;2022-12-07T23:42:34;5.70;99.90
33428;DHT22;19769;48.150;16.306;2022-12-07T23:45:15;5.60;99.90
33428;DHT22;19769;48.150;16.306;2022-12-07T23:48:01;5.70;99.90
33428;DHT22;19769;48.150;16.306;2022-12-07T23:50:36;5.60;99.90
33428;DHT22;19769;48.150;16.306;2022-12-07T23:53:02;5.70;99.90
33428;DHT22;19769;48.150;16.306;2022-12-07T23:55:27;5.70;99.90
33428;DHT22;19769;48.150;16.306;2022-12-07T23:57:53;5.60;99.90
